Terminal Aerodrome Forecast
Issued by NWS

Home | Current Version | Previous Version | Text Only | Print | Product List | Glossary On
Versions: 1 2 3 4 5 6 7 8 9 10 11 12 13
000
FTUS42 KMLB 271720
TAFLEE
TAF
KLEE 271720Z 2718/2818 23004KT P6SM VCSH SCT035 BKN060
     FM272000 16008KT P6SM VCSH SCT035 BKN080
     FM280200 15003KT P6SM SCT100 BKN250
     FM281400 11006KT P6SM SCT025 SCT080 BKN250=

USA.gov is the U.S. government's official web portal to all federal, state and local government web resources and services.